Time;durP1;ratioP1;P1;durP2;ratioP2;P2;SDS_P1;SDS_P2;PMS_P1;PMS_P2;Temp;Humidity;BMP_temperature;BMP_pressure;BME280_temperature;BME280_humidity;BME280_pressure;Samples;Min_cycle;Max_cycle;Signal;HPM_P1;HPM_P2
2021/10/04 00:02:15;;;;;;;1.05;0.95;;;;;;;16.07;90.78;98614.09;4966123;28;103834;-72
2021/10/04 00:04:42;;;;;;;;;;;;;;;15.95;90.24;98617.94;4969236;28;103054;-72
2021/10/04 00:07:10;;;;;;;;;;;;;;;15.89;89.19;98621.19;4966752;28;106580;-72
2021/10/04 00:09:39;;;;;;;;;;;;;;;15.58;87.54;98626.75;4966536;28;104622;-72
2021/10/04 00:12:08;;;;;;;;;;;;;;;15.63;87.03;98624.47;4967079;28;105717;-72
2021/10/04 00:14:36;;;;;;;;;;;;;;;15.61;86.45;98623.78;4965109;28;103468;-72
2021/10/04 00:17:03;;;;;;;;;;;;;;;15.69;86.45;98619.59;4970701;28;104821;-72
2021/10/04 00:19:33;;;;;;;;;;;;;;;15.70;85.81;98618.59;4963662;28;108974;-72
2021/10/04 00:22:00;;;;;;;;;;;;;;;15.71;86.06;98621.13;4965651;28;103923;-72
2021/10/04 00:24:28;;;;;;;;;;;;;;;15.74;87.48;98627.97;4969320;28;103870;-72
2021/10/04 00:26:56;;;;;;;;;;;;;;;15.69;88.28;98622.25;4970560;28;105042;-73
2021/10/04 00:29:23;;;;;;;;;;;;;;;15.51;86.23;98615.00;4962212;28;104714;-73
2021/10/04 00:31:54;;;;;;;;;;;;;;;15.19;87.96;98610.94;4965302;28;103732;-72
2021/10/04 00:34:22;;;;;;;;;;;;;;;15.37;87.91;98620.75;4965569;28;103852;-73
2021/10/04 00:36:51;;;;;;;;;;;;;;;15.37;88.11;98610.09;4973567;28;104952;-73
2021/10/04 00:39:19;;;;;;;;;;;;;;;15.41;88.04;98614.13;4977005;28;104667;-72
2021/10/04 00:41:46;;;;;;;;;;;;;;;15.41;87.48;98616.78;4968121;28;103155;-72
2021/10/04 00:44:14;;;;;;;;;;;;;;;15.17;87.76;98619.09;4967284;28;102737;-73
2021/10/04 00:46:42;;;;;;;;;;;;;;;15.16;88.74;98619.25;4963986;28;104543;-72
2021/10/04 00:49:10;;;;;;;;;;;;;;;15.25;87.16;98621.88;4943714;28;105032;-72
2021/10/04 00:51:37;;;;;;;;;;;;;;;15.35;87.77;98627.19;4969491;28;104096;-72
2021/10/04 00:54:06;;;;;;;;;;;;;;;15.29;86.66;98636.59;4969935;28;103167;-73
2021/10/04 00:56:34;;;;;;;;;;;;;;;15.35;86.77;98628.03;4967112;28;104990;-73
2021/10/04 00:59:02;;;;;;;;;;;;;;;15.32;87.35;98648.78;4950259;28;104632;-72
2021/10/04 01:01:31;;;;;;;;;;;;;;;15.20;88.04;98645.41;4952409;28;103752;-72
2021/10/04 01:03:59;;;;;;;;;;;;;;;15.04;88.30;98642.47;4972550;28;107534;-72
2021/10/04 01:06:27;;;;;;;;;;;;;;;14.96;88.81;98639.69;4968482;28;104627;-72
2021/10/04 01:08:55;;;;;;;;;;;;;;;14.86;90.66;98636.16;4971613;28;108084;-73
2021/10/04 01:11:25;;;;;;;;;;;;;;;14.87;88.88;98627.22;4972792;28;107191;-72
2021/10/04 01:13:53;;;;;;;;;;;;;;;14.90;89.60;98618.97;4962513;28;103365;-72
2021/10/04 01:16:21;;;;;;;;;;;;;;;14.95;88.48;98624.69;4968025;28;104587;-73
2021/10/04 01:18:49;;;;;;;;;;;;;;;14.66;89.31;98629.97;4968331;28;105008;-72
2021/10/04 01:21:18;;;;;;;;;;;;;;;14.67;88.74;98636.16;4972987;28;103722;-72
2021/10/04 01:23:45;;;;;;;;;;;;;;;14.64;89.30;98631.09;4966846;28;104032;-72
2021/10/04 01:26:13;;;;;;;;;;;;;;;14.76;89.34;98635.31;4970158;28;104700;-72
2021/10/04 01:28:41;;;;;;;;;;;;;;;14.39;90.66;98643.94;4968358;28;104187;-71
2021/10/04 01:31:08;;;;;;;;;;;;;;;14.48;90.38;98637.78;4974416;28;103833;-72
2021/10/04 01:33:36;;;;;;;;;;;;;;;14.56;90.74;98629.13;4944204;28;106696;-71
2021/10/04 01:36:04;;;;;;;;;;;;;;;14.39;91.86;98632.47;4973259;28;104842;-72
2021/10/04 01:38:33;;;;;;;;;;;;;;;14.40;92.21;98640.28;4967857;28;104737;-72
2021/10/04 01:41:01;;;;;;;;;;;;;;;14.60;92.32;98653.59;4962415;28;103790;-71
2021/10/04 01:43:29;;;;;;;;;;;;;;;14.57;91.24;98654.72;4960732;28;103504;-71
2021/10/04 01:45:56;;;;;;;;;;;;;;;14.15;93.19;98655.81;4966478;28;106667;-72
2021/10/04 01:48:24;;;;;;;;;;;;;;;14.43;92.79;98661.28;4970123;28;104885;-72
2021/10/04 01:50:52;;;;;;;;;;;;;;;14.57;92.20;98661.88;4973520;28;103859;-72
2021/10/04 01:53:21;;;;;;;;;;;;;;;14.67;91.52;98657.41;4968227;28;106345;-72
2021/10/04 01:55:50;;;;;;;;;;;;;;;14.53;91.83;98658.66;4967670;28;104095;-72
2021/10/04 01:58:17;;;;;;;;;;;;;;;14.37;92.79;98656.50;4967312;28;104726;-72
2021/10/04 02:00:45;;;;;;;;;;;;;;;14.47;92.42;98661.84;4962844;28;104091;-73
2021/10/04 02:03:13;;;;;;;;;;;;;;;14.31;93.64;98672.97;4958836;28;106716;-72
2021/10/04 02:05:41;;;;;;;;;;;;;;;14.41;93.19;98676.53;4965814;28;106679;-73
2021/10/04 02:08:08;;;;;;;;;;;;;;;14.46;93.00;98681.41;4966976;28;104795;-72
2021/10/04 02:10:37;;;;;;;;;;;;;;;14.19;94.35;98674.03;4963757;28;104063;-73
2021/10/04 02:13:10;;;;;;;;;;;;;;;14.31;93.62;98669.47;4962392;28;103046;-73
2021/10/04 02:15:38;;;;;;;;;;;;;;;14.17;95.38;98660.06;4971252;28;104761;-77
2021/10/04 02:18:07;;;;;;;;;;;;;;;13.99;96.09;98677.59;4970410;28;105100;-76
2021/10/04 02:20:35;;;;;;;;;;;;;;;13.99;96.17;98674.09;4964759;28;104594;-77
2021/10/04 02:23:05;;;;;;;;;;;;;;;14.00;96.78;98673.97;4966634;28;104677;-76
2021/10/04 02:25:34;;;;;;;;;;;;;;;13.96;97.11;98677.84;4966924;28;105362;-76
2021/10/04 02:28:01;;;;;;;;;;;;;;;13.73;99.52;98676.31;4971244;28;107614;-76
2021/10/04 02:30:30;;;;;;;;;;;;;;;13.85;99.12;98680.59;4968892;28;108005;-76
2021/10/04 02:32:58;;;;;;;;;;;;;;;13.85;98.74;98685.91;4949030;28;102798;-77
2021/10/04 02:35:26;;;;;;;;;;;;;;;13.63;99.06;98675.44;4965956;28;104832;-75
2021/10/04 02:37:54;;;;;;;;;;;;;;;13.79;99.57;98686.41;4967040;28;107619;-76
2021/10/04 02:40:22;;;;;;;;;;;;;;;13.87;97.86;98673.31;4965330;28;104571;-76
2021/10/04 02:42:51;;;;;;;;;;;;;;;13.79;97.86;98660.72;4971157;28;103433;-76
2021/10/04 02:45:19;;;;;;;;;;;;;;;13.69;97.83;98653.66;4968512;28;104927;-76
2021/10/04 02:47:49;;;;;;;;;;;;;;;13.95;96.86;98670.84;4958445;28;104304;-76
2021/10/04 02:50:18;;;;;;;;;;;;;;;13.86;94.88;98669.84;4961744;28;107695;-76
2021/10/04 02:52:45;;;;;;;;;;;;;;;13.92;95.46;98677.25;4967544;28;103087;-76
2021/10/04 02:55:14;;;;;;;;;;;;;;;13.82;95.40;98670.22;4959770;28;104779;-76
2021/10/04 02:57:42;;;;;;;;;;;;;;;13.95;95.24;98681.47;4964295;28;103914;-76
2021/10/04 03:00:30;;;;;;;;;;;;;;;14.04;95.45;98675.38;4951443;28;106661;-75
2021/10/04 03:02:59;;;;;;;;;;;;;;;14.12;95.40;98670.22;4964361;28;103243;-80
2021/10/04 03:05:27;;;;;;;;;;;;;;;14.21;94.92;98661.44;4957093;28;104927;-83
2021/10/04 03:07:57;;;;;;;;;;;;;;;14.15;94.06;98646.03;4959950;28;104751;-82
2021/10/04 03:10:25;;;;;;;;;;;;;;;14.12;94.47;98645.50;4959682;28;104624;-78
2021/10/04 03:12:52;;;;;;;;;;;;;;;14.20;94.60;98664.25;4964805;28;103202;-77
2021/10/04 03:15:20;;;;;;;;;;;;;;;14.16;95.27;98678.78;4967632;28;104867;-80
2021/10/04 03:17:48;;;;;;;;;;;;;;;14.12;95.66;98680.84;4964176;28;104855;-79
2021/10/04 03:20:17;;;;;;;;;;;;;;;14.19;95.55;98679.34;4966371;28;103815;-82
2021/10/04 03:22:45;;;;;;;;;;;;;;;14.23;95.50;98686.06;4966488;28;104130;-78
2021/10/04 03:25:13;;;;;;;;;;;;;;;14.10;95.47;98696.09;4974099;28;104678;-81
2021/10/04 03:27:43;;;;;;;;;;;;;;;14.03;96.28;98686.97;4945927;28;105829;-78
2021/10/04 03:30:11;;;;;;;;;;;;;;;14.00;97.13;98689.91;4953081;28;103880;-84
2021/10/04 03:32:39;;;;;;;;;;;;;;;14.00;96.39;98695.22;4958466;28;104041;-81
2021/10/04 03:35:08;;;;;;;;;;;;;;;14.00;96.52;98687.25;4940593;28;106251;-82
2021/10/04 03:37:37;;;;;;;;;;;;;;;14.05;96.60;98693.00;4958310;28;104623;-80
2021/10/04 03:40:05;;;;;;;;;;;;;;;14.01;95.83;98686.25;4963388;28;105477;-79
2021/10/04 03:42:33;;;;;;;;;;;;;;;14.09;96.55;98697.03;4943661;28;102924;-81
2021/10/04 03:45:01;;;;;;;;;;;;;;;14.11;96.58;98703.09;4963156;28;104673;-82
2021/10/04 03:47:29;;;;;;;;;;;;;;;14.18;96.21;98704.22;4954698;28;105147;-92
2021/10/04 03:49:58;;;;;;;;;;;;;;;14.21;95.69;98695.16;4962266;28;104016;-85
2021/10/04 03:52:26;;;;;;;;;;;;;;;14.21;95.46;98709.28;4939577;28;105033;-84
2021/10/04 03:54:55;;;;;;;;;;;;;;;14.22;94.98;98707.47;4939654;28;104709;-81
2021/10/04 03:57:22;;;;;;;;;;;;;;;14.00;96.01;98716.47;4961071;28;103752;-85
2021/10/04 03:59:50;;;;;;;;;;;;;;;13.93;98.22;98715.28;4962493;28;105611;-88
2021/10/04 04:02:20;;;;;;;;;;;;;;;14.04;98.80;98717.88;4968830;28;104000;-89
2021/10/04 04:04:48;;;;;;;;;;;;;;;13.97;97.60;98719.38;4957829;28;104654;-88
2021/10/04 04:07:15;;;;;;;;;;;;;;;13.80;98.88;98731.44;4961728;28;104443;-88
2021/10/04 04:09:43;;;;;;;;;;;;;;;13.89;99.45;98729.81;4947335;28;104258;-87
2021/10/04 04:12:12;;;;;;;;;;;;;;;13.92;98.76;98730.38;4961012;28;104042;-84
2021/10/04 04:14:40;;;;;;;;;;;;;;;13.93;98.71;98732.06;4956559;28;105852;-85
2021/10/04 04:17:07;;;;;;;;;;;;;;;13.94;97.32;98732.91;4962996;28;104524;-83
2021/10/04 04:19:35;;;;;;;;;;;;;;;13.93;97.16;98724.09;4969828;28;104073;-84
2021/10/04 04:22:03;;;;;;;;;;;;;;;13.93;98.21;98726.75;4959978;28;103117;-84
2021/10/04 04:24:31;;;;;;;;;;;;;;;13.95;98.43;98726.63;4971514;28;104712;-83
2021/10/04 04:27:04;;;;;;;;;;;;;;;14.01;98.34;98744.69;4965141;28;104817;-86
2021/10/04 04:29:33;;;;;;;;;;;;;;;14.02;98.12;98756.16;4951349;28;105369;-86
2021/10/04 04:32:02;;;;;;;;;;;;;;;14.03;98.36;98756.03;4971325;28;103145;-83
2021/10/04 04:34:30;;;;;;;;;;;;;;;13.98;97.97;98739.63;4975835;28;105499;-84
2021/10/04 04:36:58;;;;;;;;;;;;;;;14.03;98.33;98729.47;4955892;28;104662;-84
2021/10/04 04:39:27;;;;;;;;;;;;;;;14.08;98.73;98737.03;4973178;28;104210;-82
2021/10/04 04:41:55;;;;;;;;;;;;;;;14.12;98.65;98741.94;4965532;28;103570;-84
2021/10/04 04:44:23;;;;;;;;;;;;;;;13.95;98.62;98745.19;4971622;28;104909;-81
2021/10/04 04:46:52;;;;;;;;;;;;;;;13.83;99.85;98746.28;4963695;28;104826;-83
2021/10/04 04:49:25;;;;;;;;;;;;;;;13.88;100.00;98744.06;4954342;28;103997;-84
2021/10/04 04:51:54;;;;;;;;;;;;;;;13.91;99.72;98742.00;4968705;28;103999;-79
2021/10/04 04:54:22;;;;;;;;;;;;;;;13.98;99.69;98747.59;4969830;28;104749;-91
2021/10/04 04:56:50;;;;;;;;;;;;;;;13.90;99.56;98748.25;4956829;28;104560;-81
2021/10/04 04:59:18;;;;;;;;;;;;;;;13.94;99.50;98751.50;4967910;28;105605;-85
2021/10/04 05:01:45;;;;;;;;;;;;;;;13.98;98.99;98762.72;4954252;28;104865;-86
2021/10/04 05:04:15;;;;;;;;;;;;;;;13.94;98.62;98762.13;4968887;28;104577;-81
2021/10/04 05:06:43;;;;;;;;;;;;;;;13.93;98.73;98769.25;4969922;28;105138;-83
2021/10/04 05:09:12;;;;;;;;;;;;;;;14.01;99.45;98779.22;4969851;28;103821;-82
2021/10/04 05:11:39;;;;;;;;;;;;;;;14.06;98.76;98778.84;4973636;28;103139;-83
2021/10/04 05:14:07;;;;;;;;;;;;;;;14.07;98.64;98781.34;4970791;28;104652;-81
2021/10/04 05:16:35;;;;;;;;;;;;;;;13.89;97.96;98777.63;4970030;28;104674;-84
2021/10/04 05:19:03;;;;;;;;;;;;;;;13.74;99.97;98773.59;4971993;28;104121;-83
2021/10/04 05:21:32;;;;;;;;;;;;;;;13.74;100.00;98776.25;4972274;28;103048;-86
2021/10/04 05:24:00;;;;;;;;;;;;;;;13.53;100.00;98780.69;4968628;28;105784;-86
2021/10/04 05:26:28;;;;;;;;;;;;;;;13.52;100.00;98784.31;4966500;28;104555;-87
2021/10/04 05:28:56;;;;;;;;;;;;;;;13.51;100.00;98793.22;4965296;28;104372;-84
2021/10/04 05:31:24;;;;;;;;;;;;;;;13.66;100.00;98805.25;4973567;28;103200;-82
2021/10/04 05:33:52;;;;;;;;;;;;;;;13.75;100.00;98805.31;4969293;28;104365;-90
2021/10/04 05:36:20;;;;;;;;;;;;;;;13.71;100.00;98811.88;4978276;28;106033;-89
2021/10/04 05:38:49;;;;;;;;;;;;;;;13.80;100.00;98824.38;4952725;28;104050;-87
2021/10/04 05:41:18;;;;;;;;;;;;;;;13.85;100.00;98827.50;4969557;28;103600;-85
2021/10/04 05:43:45;;;;;;;;;;;;;;;13.89;99.55;98825.44;4963071;28;104581;-86
2021/10/04 05:46:13;;;;;;;;;;;;;;;13.83;99.36;98836.56;4960677;28;104460;-85
2021/10/04 05:48:41;;;;;;;;;;;;;;;13.88;100.00;98837.84;4957207;28;104742;-84
2021/10/04 05:51:13;;;;;;;;;;;;;;;13.94;99.75;98844.47;4951781;28;104449;-86
2021/10/04 05:53:41;;;;;;;;;;;;;;;13.95;99.98;98838.16;4950252;28;104691;-85
2021/10/04 05:56:10;;;;;;;;;;;;;;;13.86;99.50;98836.31;4983292;28;104544;-85
2021/10/04 05:58:38;;;;;;;;;;;;;;;13.78;100.00;98838.75;4983438;28;103550;-85
2021/10/04 06:01:07;;;;;;;;;;;;;;;13.82;100.00;98840.16;4996466;28;104362;-86
2021/10/04 06:03:34;;;;;;;;;;;;;;;13.65;100.00;98838.06;4948202;28;104067;-86
2021/10/04 06:06:02;;;;;;;;;;;;;;;13.62;100.00;98833.00;4963291;28;104760;-85
2021/10/04 06:08:30;;;;;;;;;;;;;;;13.54;100.00;98825.69;4979951;28;104286;-86
2021/10/04 06:10:58;;;;;;;;;;;;;;;13.48;100.00;98830.66;4984791;28;103041;-85
2021/10/04 06:13:27;;;;;;;;;;;;;;;13.45;100.00;98841.50;4972266;28;104199;-86
2021/10/04 06:15:55;;;;;;;;;;;;;;;13.36;100.00;98832.50;4968207;28;105210;-86
2021/10/04 06:18:26;;;;;;;;;;;;;;;13.35;100.00;98836.97;4955855;28;103879;-86
2021/10/04 06:20:54;;;;;;;;;;;;;;;13.41;100.00;98845.41;4953690;28;103145;-86
2021/10/04 06:23:22;;;;;;;;;;;;;;;13.29;100.00;98840.13;4966701;28;104733;-86
2021/10/04 06:25:49;;;;;;;;;;;;;;;13.33;100.00;98843.38;4976362;28;105223;-86
2021/10/04 06:28:18;;;;;;;;;;;;;;;13.39;100.00;98847.34;4971244;28;104378;-86
2021/10/04 06:30:47;;;;;;;;;;;;;;;13.39;100.00;98834.88;4962575;28;103813;-86
2021/10/04 06:33:15;;;;;;;;;;;;;;;13.45;100.00;98841.50;4957449;28;103860;-86
2021/10/04 06:35:45;;;;;;;;;;;;;;;13.44;100.00;98845.16;4960728;28;104667;-84
2021/10/04 06:38:13;;;;;;;;;;;;;;;13.25;100.00;98846.63;4959619;28;105577;-86
2021/10/04 06:40:41;;;;;;;;;;;;;;;13.29;100.00;98850.72;4972525;28;104033;-86
2021/10/04 06:43:09;;;;;;;;;;;;;;;13.31;100.00;98846.13;4971041;28;104823;-85
2021/10/04 06:45:37;;;;;;;;;;;;;;;13.34;100.00;98856.50;4968843;28;104956;-86
2021/10/04 06:48:06;;;;;;;;;;;;;;;13.53;100.00;98862.97;4948492;28;105584;-82
2021/10/04 06:50:35;;;;;;;;;;;;;;;13.48;100.00;98878.41;4978727;28;103040;-85
2021/10/04 06:53:03;;;;;;;;;;;;;;;13.54;100.00;98889.38;4978034;28;105712;-85
2021/10/04 06:55:31;;;;;;;;;;;;;;;13.63;100.00;98893.09;4961620;28;104828;-87
2021/10/04 06:57:59;;;;;;;;;;;;;;;13.39;100.00;98890.63;4962554;28;104224;-86
2021/10/04 07:00:26;;;;;;;;;;;;;;;13.44;100.00;98893.78;4974562;28;103205;-85
2021/10/04 07:02:54;;;;;;;;;;;;;;;13.12;100.00;98896.34;4978403;28;104693;-86
2021/10/04 07:05:24;;;;;;;;;;;;;;;13.24;100.00;98907.78;4971761;28;104756;-81
2021/10/04 07:07:55;;;;;;;;;;;;;;;13.05;100.00;98903.03;4971359;28;103991;-84
2021/10/04 07:10:23;;;;;;;;;;;;;;;13.00;100.00;98907.03;4969296;28;104166;-86
2021/10/04 07:12:51;;;;;;;;;;;;;;;12.81;100.00;98915.59;4969231;28;103589;-87
2021/10/04 07:15:20;;;;;;;;;;;;;;;12.99;100.00;98922.13;4971444;28;104038;-87
2021/10/04 07:17:48;;;;;;;;;;;;;;;13.03;100.00;98912.94;4974802;28;103341;-86
2021/10/04 07:20:16;;;;;;;;;;;;;;;13.12;100.00;98930.81;4978287;28;103630;-87
2021/10/04 07:22:45;;;;;;;;;;;;;;;12.93;100.00;98927.91;4973158;28;104815;-84
2021/10/04 07:25:13;;;;;;;;;;;;;;;12.93;100.00;98938.50;4979727;28;105135;-84
2021/10/04 07:27:41;;;;;;;;;;;;;;;13.00;100.00;98941.50;4973282;28;105468;-86
2021/10/04 07:30:09;;;;;;;;;;;;;;;13.10;100.00;98942.53;4970917;28;103250;-86
2021/10/04 07:32:39;;;;;;;;;;;;;;;13.20;100.00;98944.31;4974497;28;104507;-86
2021/10/04 07:35:07;;;;;;;;;;;;;;;13.10;100.00;98953.97;4949034;28;105471;-87
2021/10/04 07:37:35;;;;;;;;;;;;;;;13.29;100.00;98948.91;4979102;28;104106;-87
2021/10/04 07:40:08;;;;;;;;;;;;;;;13.18;100.00;98951.56;4973285;28;102931;-86
2021/10/04 07:42:36;;;;;;;;;;;;;;;12.98;100.00;98951.41;4979875;28;104451;-86
2021/10/04 07:45:04;;;;;;;;;;;;;;;12.89;100.00;98952.09;4971359;28;105039;-86
2021/10/04 07:47:33;;;;;;;;;;;;;;;13.16;100.00;98952.66;4963438;28;103757;-87
2021/10/04 07:50:01;;;;;;;;;;;;;;;13.54;100.00;98969.00;4969123;28;102776;-87
2021/10/04 07:52:28;;;;;;;;;;;;;;;13.63;100.00;98968.28;4976961;28;104786;-87
2021/10/04 07:54:56;;;;;;;;;;;;;;;13.73;100.00;98969.22;4964903;28;104706;-86
2021/10/04 07:57:25;;;;;;;;;;;;;;;13.32;100.00;98974.34;4954848;28;105295;-84
2021/10/04 07:59:53;;;;;;;;;;;;;;;13.27;100.00;98982.69;4951221;28;103255;-81
2021/10/04 08:02:21;;;;;;;;;;;;;;;13.29;100.00;98998.47;4946947;28;104645;-82
2021/10/04 08:04:49;;;;;;;;;;;;;;;13.53;100.00;98995.69;4958189;28;105307;-83
2021/10/04 08:22:27;;;;;;;;;;;;;;;13.64;100.00;98990.38;4994473;22;103534;-62
2021/10/04 08:24:55;;;;;;;;;;;;;;;13.62;100.00;98987.81;4979201;27;102754;-62
2021/10/04 08:27:24;;;;;;;;;;;;;;;13.71;100.00;98986.25;5002478;28;103915;-62
2021/10/04 08:29:51;;;;;;;;;;;;;;;13.78;100.00;98998.06;5001053;28;103732;-62
2021/10/04 08:32:19;;;;;;;;;;;;;;;13.85;100.00;99000.09;5005073;28;103186;-62
2021/10/04 08:34:47;;;;;;;;;;;;;;;14.05;100.00;99001.13;5009992;28;102719;-63
2021/10/04 08:37:15;;;;;;;;;;;;;;;14.07;100.00;99015.13;5007773;28;104364;-63
2021/10/04 08:39:45;;;;;;;;;;;;;;;13.95;100.00;99018.78;5009744;28;102769;-62
2021/10/04 08:42:13;;;;;;;;;;;;;;;13.79;100.00;99015.69;5010044;28;104178;-63
2021/10/04 08:44:42;;;;;;;;;;;;;;;13.33;100.00;99008.72;4985194;28;102738;-66
2021/10/04 08:47:10;;;;;;;;;;;;;;;13.45;100.00;99011.34;5014143;28;103122;-66
2021/10/04 08:49:38;;;;;;;;;;;;;;;13.59;100.00;99008.47;5005472;28;103876;-66
2021/10/04 08:52:06;;;;;;;;;;;;;;;13.69;100.00;99015.59;5011493;28;103187;-66
2021/10/04 08:54:35;;;;;;;;;;;;;;;13.57;100.00;99026.31;5002092;28;102744;-66
2021/10/04 08:57:07;;;;;;;;;;;;;;;13.91;100.00;99030.63;5005396;28;104036;-62
2021/10/04 08:59:35;;;;;;;;;;;;;;;14.04;100.00;99028.66;4987635;28;104054;-66
2021/10/04 09:02:21;;;;;;;;;;;;;;;14.17;100.00;99032.03;5003017;28;103223;-66
2021/10/04 09:05:06;;;;;;;;;;;;;;;14.12;100.00;99023.56;5008408;28;102739;-62
2021/10/04 09:07:44;;;;;;;;;;;;;;;14.20;100.00;99026.47;4999465;28;102691;-66
2021/10/04 09:10:13;;;;;;;;;;;;;;;14.25;100.00;99020.75;5011126;28;103274;-66
2021/10/04 09:12:44;;;;;;;;;;;;;;;14.14;97.84;99020.81;5012092;27;103215;-66
2021/10/04 09:15:19;;;;;;;;;;;;;;;14.02;100.00;99024.44;5010244;28;102615;-67
2021/10/04 09:17:47;;;;;;;;;;;;;;;13.94;98.05;99019.75;5008215;28;102705;-62
2021/10/04 09:20:14;;;;;;;;;;;;;;;14.10;100.00;99020.19;5010595;28;103873;-66
2021/10/04 09:22:42;;;;;;;;;;;;;;;14.25;99.60;99013.63;4988852;28;103223;-66
2021/10/04 09:25:10;;;;;;;;;;;;;;;14.47;98.33;99018.91;5007871;28;102633;-66
2021/10/04 09:27:39;;;;;;;;;;;;;;;14.49;99.08;99022.25;5013092;28;102673;-66
2021/10/04 09:30:10;;;;;;;;;;;;;;;14.41;98.05;99030.03;5004837;28;103716;-66
2021/10/04 09:32:39;;;;;;;;;;;;;;;14.65;99.21;99026.31;5010974;28;103191;-66
2021/10/04 09:35:21;;;;;;;;;;;;;;;14.63;99.45;99033.56;5009078;28;103011;-66
2021/10/04 09:37:51;;;;;;;;;;;;;;;14.74;97.03;99030.84;5011442;28;103087;-67
2021/10/04 09:40:30;;;;;;;;;;;;;;;14.77;96.93;99034.09;5009725;28;103291;-66
2021/10/04 09:42:59;;;;;;;;;;;;;;;14.55;96.07;99042.19;5008965;28;103167;-66
2021/10/04 09:45:28;;;;;;;;;;;;;;;14.70;95.98;99050.69;4988532;28;102809;-66
2021/10/04 09:47:56;;;;;;;;;;;;;;;14.87;96.27;99044.81;5011292;28;103908;-66
2021/10/04 09:50:29;;;;;;;;;;;;;;;14.89;95.74;99045.53;4989286;28;103199;-66
2021/10/04 09:52:57;;;;;;;;;;;;;;;15.09;95.91;99047.34;5003325;28;103253;-67
2021/10/04 09:55:27;;;;;;;;;;;;;;;14.91;93.67;99032.94;4996163;28;103060;-62
2021/10/04 09:58:06;;;;;;;;;;;;;;;14.87;97.22;99036.84;4999716;28;102855;-67
2021/10/04 10:00:38;;;;;;;;;;;;;;;14.34;96.82;99033.34;4997433;28;103293;-62
2021/10/04 10:03:07;;;;;;;;;;;;;;;14.37;97.89;99027.78;5005353;28;103272;-62
2021/10/04 10:05:38;;;;;;;;;;;;;;;14.39;98.56;99032.00;5002878;28;102678;-62
2021/10/04 10:08:06;;;;;;;;;;;;;;;14.62;96.41;99032.75;5004276;28;102761;-66
2021/10/04 10:10:36;;;;;;;;;;;;;;;14.78;96.08;99032.28;4984119;28;103244;-66
2021/10/04 10:13:05;;;;;;;;;;;;;;;14.62;92.73;99037.22;4988354;28;103940;-66
2021/10/04 10:15:33;;;;;;;;;;;;;;;14.83;91.08;99044.22;4994497;28;102730;-66
2021/10/04 10:18:12;;;;;;;;;;;;;;;15.21;92.27;99040.13;4989375;28;103823;-66
2021/10/04 10:20:40;;;;;;;;;;;;;;;15.13;91.71;99039.94;4991719;28;104174;-62
2021/10/04 10:23:09;;;;;;;;;;;;;;;15.24;92.38;99030.03;4969348;28;103231;-62
2021/10/04 10:25:39;;;;;;;;;;;;;;;15.54;92.12;99027.44;4981135;28;102864;-62
2021/10/04 10:28:27;;;;;;;;;;;;;;;15.70;91.59;99021.59;4990506;28;102911;-65
2021/10/04 10:30:55;;;;;;;;;;;;;;;15.73;88.59;99007.16;4994791;28;104109;-65
2021/10/04 10:33:41;;;;;;;;;;;;;;;15.76;90.62;99004.22;4996051;28;103314;-67
2021/10/04 10:36:11;;;;;;;;;;;;;;;15.83;89.46;99003.53;4994909;28;102602;-67
2021/10/04 10:39:02;;;;;;;;;;;;;;;14.94;95.47;99012.22;4975343;28;102704;-66
2021/10/04 10:41:30;;;;;;;;;;;;;;;15.49;96.69;99011.03;4995454;28;103229;-66
2021/10/04 10:44:10;;;;;;;;;;;;;;;15.75;92.15;99002.56;4978118;28;103331;-66
2021/10/04 10:46:44;;;;;;;;;;;;;;;16.13;91.42;98999.97;4997505;28;102635;-66
2021/10/04 10:49:13;;;;;;;;;;;;;;;16.28;92.04;99001.22;4997129;28;102745;-65
2021/10/04 10:51:56;;;;;;;;;;;;;;;16.20;90.45;99001.94;4979364;28;103261;-60
2021/10/04 10:54:38;;;;;;;;;;;;;;;16.31;88.78;99000.94;4996404;28;103180;-61
2021/10/04 10:57:06;;;;;;;;;;;;;;;16.28;85.72;98998.56;4996598;28;102721;-66
2021/10/04 10:59:35;;;;;;;;;;;;;;;16.17;88.28;99004.03;4999416;28;102751;-65
2021/10/04 11:02:03;;;;;;;;;;;;;;;16.02;89.75;99010.75;4997770;28;103228;-66
2021/10/04 11:04:41;;;;;;;;;;;;;;;15.91;88.17;99018.88;4993609;28;103253;-61
2021/10/04 11:07:09;;;;;;;;;;;;;;;15.95;90.79;99009.59;4993498;28;102557;-62
2021/10/04 11:09:56;;;;;;;;;;;;;;;15.75;89.23;99003.38;4994276;28;103401;-60
2021/10/04 11:12:25;;;;;;;;;;;;;;;15.79;88.96;98998.63;4993028;28;103995;-61
2021/10/04 11:14:55;;;;;;;;;;;;;;;15.71;91.68;98990.47;4993052;28;103159;-62
2021/10/04 11:17:23;;;;;;;;;;;;;;;15.90;90.13;99001.19;4990914;28;102764;-65
2021/10/04 11:19:52;;;;;;;;;;;;;;;15.79;89.70;98998.63;4993685;28;102731;-65
2021/10/04 11:22:24;;;;;;;;;;;;;;;16.04;88.58;99000.78;4983918;28;103332;-65
2021/10/04 11:24:58;;;;;;;;;;;;;;;16.18;88.81;98995.06;4974579;28;103183;-65
2021/10/04 11:27:28;;;;;;;;;;;;;;;16.31;88.74;99003.63;4952444;28;103037;-65
2021/10/04 11:30:03;;;;;;;;;;;;;;;16.41;89.98;99007.16;4968742;28;103916;-66
2021/10/04 11:32:31;;;;;;;;;;;;;;;16.32;88.44;98997.31;4967465;28;103197;-65
2021/10/04 11:35:10;;;;;;;;;;;;;;;16.38;88.90;98991.44;4968162;28;103184;-65
2021/10/04 11:37:38;;;;;;;;;;;;;;;16.35;88.96;98977.53;4967415;28;102766;-65
2021/10/04 11:40:07;;;;;;;;;;;;;;;16.23;89.92;98987.47;4969126;28;103033;-66
2021/10/04 11:42:36;;;;;;;;;;;;;;;16.24;89.48;98989.19;4967406;28;103156;-66
2021/10/04 11:45:09;;;;;;;;;;;;;;;16.50;89.88;98978.78;4964012;28;103228;-65
2021/10/04 11:47:40;;;;;;;;;;;;;;;15.87;89.48;98970.34;4971412;28;103319;-65
2021/10/04 11:50:12;;;;;;;;;;;;;;;16.20;89.20;98956.63;4989542;28;102623;-65
2021/10/04 11:52:40;;;;;;;;;;;;;;;16.43;89.84;98962.50;4964953;28;103237;-61
2021/10/04 11:55:10;;;;;;;;;;;;;;;16.45;87.67;98971.19;4987277;28;103162;-61
2021/10/04 11:57:41;;;;;;;;;;;;;;;16.22;88.48;98967.97;4988997;28;102824;-62
2021/10/04 12:00:11;;;;;;;;;;;;;;;16.46;90.28;98967.56;4991799;28;102712;-61
2021/10/04 12:02:42;;;;;;;0.80;0.65;;;;;;;16.71;87.00;98967.00;4991574;28;103358;-61
2021/10/04 12:05:16;;;;;;;0.60;0.60;;;;;;;16.40;85.45;98972.59;4990461;28;103141;-61
2021/10/04 12:08:01;;;;;;;1.25;0.40;;;;;;;16.34;83.71;98974.00;4993161;28;102991;-61
2021/10/04 12:10:45;;;;;;;0.40;0.40;;;;;;;16.77;84.53;98971.78;4991879;28;103343;-61
2021/10/04 12:13:16;;;;;;;;;;;;;;;16.78;86.35;98968.13;4991792;28;104102;-62
2021/10/04 12:15:44;;;;;;;;;;;;;;;16.69;86.81;98968.97;4996210;28;103166;-64
2021/10/04 12:18:13;;;;;;;;;;;;;;;16.65;83.56;98972.91;4993781;28;102860;-65
2021/10/04 12:20:42;;;;;;;;;;;;;;;16.89;84.12;98958.28;4996493;28;103008;-65
2021/10/04 12:23:15;;;;;;;0.50;0.50;;;;;;;17.15;86.43;98954.00;4993621;28;103317;-62
2021/10/04 12:25:44;;;;;;;0.63;0.60;;;;;;;16.82;85.32;98944.66;4994995;28;103246;-62
2021/10/04 12:28:19;;;;;;;1.20;0.50;;;;;;;17.04;82.47;98943.50;4974066;28;102674;-62
2021/10/04 12:30:50;;;;;;;0.60;0.40;;;;;;;17.07;84.21;98951.19;4994965;28;105057;-62
2021/10/04 12:33:20;;;;;;;0.85;0.60;;;;;;;17.18;82.03;98938.50;4995438;28;103391;-62
2021/10/04 12:35:49;;;;;;;1.02;0.40;;;;;;;17.21;81.64;98948.03;4975119;28;103466;-66
2021/10/04 12:38:18;;;;;;;0.53;0.50;;;;;;;17.73;80.20;98951.91;4993245;28;102812;-63
2021/10/04 12:40:49;;;;;;;0.80;0.57;;;;;;;17.91;79.20;98947.41;4993761;28;103932;-63
2021/10/04 12:43:26;;;;;;;0.70;0.60;;;;;;;17.76;77.93;98932.91;4991261;28;103306;-63
2021/10/04 12:45:58;;;;;;;0.80;0.65;;;;;;;17.15;78.78;98927.28;4993142;28;103379;-63
2021/10/04 12:48:27;;;;;;;0.70;0.50;;;;;;;18.18;77.49;98919.78;4994078;28;102815;-62
2021/10/04 12:51:07;;;;;;;0.70;0.68;;;;;;;17.52;76.08;98919.22;4997055;28;102791;-65
2021/10/04 12:53:45;;;;;;;1.70;0.70;;;;;;;17.71;76.44;98914.63;4995104;28;103049;-66
2021/10/04 12:56:19;;;;;;;1.10;0.70;;;;;;;18.32;75.81;98919.25;4979072;28;103211;-63